Time;durP1;ratioP1;P1;durP2;ratioP2;P2;SDS_P1;SDS_P2;PMS_P1;PMS_P2;Temp;Humidity;BMP_temperature;BMP_pressure;BME280_temperature;BME280_humidity;BME280_pressure;Samples;Min_cycle;Max_cycle;Signal;HPM_P1;HPM_P2
2023/01/21 00:02:20;;;;;;;4.70;3.80;;;-3.30;99.90;;;;;;5029844;28;20205;-69
2023/01/21 00:04:48;;;;;;;5.28;3.78;;;-3.30;99.90;;;;;;5029822;28;20198;-70
2023/01/21 00:07:15;;;;;;;4.82;4.15;;;-3.30;99.90;;;;;;5029521;28;20230;-69
2023/01/21 00:09:41;;;;;;;6.18;4.18;;;-3.20;99.90;;;;;;5029950;28;20590;-69
2023/01/21 00:12:08;;;;;;;8.10;3.72;;;-3.20;99.90;;;;;;5029794;28;20205;-70
2023/01/21 00:14:35;;;;;;;6.55;4.55;;;-3.20;99.90;;;;;;5030242;28;20209;-70
2023/01/21 00:17:02;;;;;;;5.63;4.05;;;-3.20;99.90;;;;;;5029820;28;20233;-70
2023/01/21 00:19:28;;;;;;;5.57;4.72;;;-3.20;99.90;;;;;;5018366;28;20202;-70
2023/01/21 00:21:56;;;;;;;10.10;5.07;;;-3.20;99.90;;;;;;5010342;28;20210;-70
2023/01/21 00:24:23;;;;;;;7.57;4.93;;;-3.20;99.90;;;;;;5010128;28;20218;-70
2023/01/21 00:26:50;;;;;;;11.18;4.55;;;-3.20;99.90;;;;;;5010464;28;20277;-69
2023/01/21 00:29:17;;;;;;;8.57;4.18;;;-3.20;99.90;;;;;;5009323;28;20206;-70
2023/01/21 00:31:44;;;;;;;8.57;4.65;;;-3.20;99.90;;;;;;5010017;28;20911;-70
2023/01/21 00:34:11;;;;;;;4.63;4.22;;;-3.20;99.90;;;;;;5010436;28;20206;-69
2023/01/21 00:36:37;;;;;;;6.15;4.95;;;-3.20;99.90;;;;;;5009840;28;20219;-69
2023/01/21 00:39:06;;;;;;;5.00;3.78;;;-3.20;99.90;;;;;;5010050;28;20225;-69
2023/01/21 00:41:33;;;;;;;4.20;3.80;;;-3.20;99.90;;;;;;5010064;28;20210;-70
2023/01/21 00:44:00;;;;;;;5.30;4.55;;;-3.20;99.90;;;;;;5009793;28;20692;-69
2023/01/21 00:46:27;;;;;;;9.35;4.65;;;-3.20;99.90;;;;;;5009994;28;20230;-70
2023/01/21 00:48:54;;;;;;;3.85;3.28;;;-3.20;99.90;;;;;;5009503;28;20203;-70
2023/01/21 00:51:21;;;;;;;6.32;3.80;;;-3.20;99.90;;;;;;5009757;28;20295;-69
2023/01/21 00:53:48;;;;;;;7.93;5.10;;;-3.20;99.90;;;;;;5010225;28;20203;-69
2023/01/21 00:56:16;;;;;;;6.53;3.78;;;-3.20;99.90;;;;;;5010451;28;20230;-70
2023/01/21 00:58:43;;;;;;;7.55;4.82;;;-3.30;99.90;;;;;;5010319;28;20209;-69
2023/01/21 01:01:12;;;;;;;6.65;4.60;;;-3.30;99.90;;;;;;5010454;28;20289;-70
2023/01/21 01:03:40;;;;;;;5.78;5.05;;;-3.30;99.90;;;;;;5010778;28;20202;-70
2023/01/21 01:06:09;;;;;;;7.45;4.05;;;-3.30;99.90;;;;;;5011792;28;20222;-68
2023/01/21 01:08:36;;;;;;;7.40;5.20;;;-3.30;99.90;;;;;;5014067;28;20229;-68
2023/01/21 01:11:04;;;;;;;5.50;4.47;;;-3.30;99.90;;;;;;5013886;28;20213;-70
2023/01/21 01:13:34;;;;;;;8.23;4.97;;;-3.30;99.90;;;;;;5014235;28;20206;-70
2023/01/21 01:16:01;;;;;;;5.53;4.30;;;-3.30;99.90;;;;;;5014121;28;20626;-70
2023/01/21 01:18:29;;;;;;;7.38;3.45;;;-3.30;99.90;;;;;;5013226;28;20284;-70
2023/01/21 01:20:56;;;;;;;5.95;4.03;;;-3.30;99.90;;;;;;5014076;28;20202;-70
2023/01/21 01:23:23;;;;;;;8.68;4.82;;;-3.30;99.90;;;;;;5013627;28;20595;-67
2023/01/21 01:25:58;;;;;;;5.25;3.92;;;-3.20;99.90;;;;;;5013807;28;20222;-69
2023/01/21 01:28:25;;;;;;;11.13;4.72;;;-3.30;99.90;;;;;;5012939;28;20213;-70
2023/01/21 01:30:53;;;;;;;6.30;4.07;;;-3.30;99.90;;;;;;5013697;28;20198;-70
2023/01/21 01:33:20;;;;;;;5.90;5.13;;;-3.30;99.90;;;;;;5013626;28;20628;-70
2023/01/21 01:35:48;;;;;;;7.05;4.47;;;-3.20;99.90;;;;;;5012680;28;20222;-70
2023/01/21 01:38:15;;;;;;;6.10;4.47;;;-3.20;99.90;;;;;;5013468;28;20211;-70
2023/01/21 01:40:42;;;;;;;6.18;4.30;;;-3.20;99.90;;;;;;5013111;28;20210;-70
2023/01/21 01:43:17;;;;;;;6.50;5.55;;;-3.20;99.90;;;;;;5013452;28;20198;-70
2023/01/21 01:45:43;;;;;;;6.63;4.70;;;-3.20;99.90;;;;;;5012700;28;20276;-70
2023/01/21 01:48:14;;;;;;;5.50;4.20;;;-3.20;99.90;;;;;;5013354;28;20218;-70
2023/01/21 01:50:42;;;;;;;5.00;3.45;;;-3.20;99.90;;;;;;5013496;28;20662;-70
2023/01/21 01:53:12;;;;;;;4.80;3.60;;;-3.20;99.90;;;;;;5013423;28;20265;-70
2023/01/21 01:55:39;;;;;;;7.35;3.80;;;-3.30;99.90;;;;;;5013151;28;20234;-70
2023/01/21 01:58:10;;;;;;;4.88;3.78;;;-3.30;99.90;;;;;;5013073;28;20210;-70
2023/01/21 02:00:37;;;;;;;6.50;3.83;;;-3.40;99.90;;;;;;5013057;28;20234;-69
2023/01/21 02:05:51;;;;;;;5.88;3.88;;;-3.50;99.90;;;;;;5013088;28;20213;-69
2023/01/21 02:08:18;;;;;;;7.47;4.38;;;-3.60;99.90;;;;;;5012773;28;20207;-69
2023/01/21 02:10:45;;;;;;;8.32;4.53;;;-3.60;99.90;;;;;;5012167;28;20202;-70
2023/01/21 02:13:12;;;;;;;6.63;4.93;;;-3.70;99.90;;;;;;5012888;28;20561;-70
2023/01/21 02:15:48;;;;;;;6.90;4.65;;;-3.70;99.90;;;;;;5012803;28;20219;-70
2023/01/21 02:18:23;;;;;;;7.70;5.10;;;-3.80;99.90;;;;;;5012445;28;20669;-70
2023/01/21 02:21:14;;;;;;;6.10;3.65;;;-3.80;99.90;;;;;;5012710;28;20665;-70
2023/01/21 02:24:10;;;;;;;5.13;4.15;;;-3.90;99.90;;;;;;5012947;28;20198;-70
2023/01/21 02:27:27;;;;;;;5.78;4.05;;;-4.00;99.90;;;;;;5012207;28;20230;-69
2023/01/21 02:30:41;;;;;;;3.97;3.40;;;-4.10;99.90;;;;;;4996972;28;20202;-70
2023/01/21 02:33:33;;;;;;;4.72;3.65;;;-4.20;99.90;;;;;;5012303;28;20202;-69
2023/01/21 02:36:10;;;;;;;6.22;4.28;;;-4.30;99.90;;;;;;5012472;28;20219;-69
2023/01/21 02:38:45;;;;;;;6.28;4.45;;;-4.30;99.90;;;;;;5012025;28;20241;-70
2023/01/21 02:41:23;;;;;;;6.32;4.30;;;-4.40;99.90;;;;;;5012353;28;20225;-70
2023/01/21 02:43:57;;;;;;;5.97;3.03;;;-4.40;99.90;;;;;;5012546;28;20620;-69
2023/01/21 02:46:28;;;;;;;5.82;3.40;;;-4.50;99.90;;;;;;5012203;28;20700;-70
2023/01/21 02:49:00;;;;;;;3.53;2.85;;;-4.50;99.90;;;;;;5011977;28;20210;-70
2023/01/21 02:51:27;;;;;;;6.85;3.72;;;-4.60;99.90;;;;;;5012039;28;20206;-69
2023/01/21 02:53:53;;;;;;;3.88;3.45;;;-4.70;99.90;;;;;;5012238;28;20211;-69
2023/01/21 02:56:24;;;;;;;4.20;3.78;;;-4.70;99.90;;;;;;5012053;28;20238;-69
2023/01/21 02:58:55;;;;;;;4.97;4.13;;;-4.70;99.90;;;;;;5011853;28;20701;-69
2023/01/21 03:01:33;;;;;;;6.38;3.78;;;-4.70;99.90;;;;;;5011954;28;20198;-69
2023/01/21 03:04:26;;;;;;;5.20;3.85;;;-4.70;99.90;;;;;;5012119;28;20206;-70
2023/01/21 03:07:01;;;;;;;4.65;3.47;;;-4.80;99.90;;;;;;5011506;28;20230;-69
2023/01/21 03:09:30;;;;;;;9.98;4.97;;;-4.80;99.90;;;;;;5011587;28;20213;-70
2023/01/21 03:12:07;;;;;;;3.70;3.30;;;-4.90;99.90;;;;;;5012120;28;20689;-67
2023/01/21 03:17:34;;;;;;;5.65;3.70;;;-5.00;99.90;;;;;;5012020;28;20205;-70
2023/01/21 03:20:08;;;;;;;4.93;4.30;;;-5.00;99.90;;;;;;5010988;28;20210;-69
2023/01/21 03:22:37;;;;;;;6.38;4.05;;;-5.00;99.90;;;;;;5011925;28;20236;-70
2023/01/21 03:25:07;;;;;;;3.60;3.30;;;-5.00;99.90;;;;;;5011255;28;20218;-70
2023/01/21 03:27:38;;;;;;;4.60;3.78;;;-5.00;99.90;;;;;;5011780;28;20225;-70
2023/01/21 03:30:10;;;;;;;8.55;3.72;;;-5.00;99.90;;;;;;5010991;28;20210;-70
2023/01/21 03:32:39;;;;;;;3.80;3.30;;;-5.00;99.90;;;;;;5011581;28;20538;-70
2023/01/21 03:35:10;;;;;;;3.78;3.30;;;-5.00;99.90;;;;;;5011372;28;20760;-70
2023/01/21 03:37:41;;;;;;;5.93;4.75;;;-5.10;99.90;;;;;;5011531;28;20626;-70
2023/01/21 03:40:17;;;;;;;6.68;4.13;;;-5.10;99.90;;;;;;5011015;28;20207;-69
2023/01/21 03:42:45;;;;;;;10.65;4.78;;;-5.20;99.90;;;;;;5011261;28;20261;-69
2023/01/21 03:45:13;;;;;;;6.13;3.20;;;-5.20;99.90;;;;;;5011449;28;20252;-70
2023/01/21 03:47:44;;;;;;;8.60;4.00;;;-5.30;99.90;;;;;;5011491;28;20593;-70
2023/01/21 03:50:17;;;;;;;3.83;3.25;;;-5.30;99.90;;;;;;5010684;28;20206;-70
2023/01/21 03:52:44;;;;;;;5.50;4.95;;;-5.40;99.90;;;;;;5011383;28;20235;-70
2023/01/21 03:55:13;;;;;;;4.80;3.55;;;-5.40;99.90;;;;;;5010941;28;20240;-70
2023/01/21 03:57:39;;;;;;;10.85;4.97;;;-5.40;99.90;;;;;;5011491;28;20201;-70
2023/01/21 04:00:08;;;;;;;6.25;5.35;;;-5.50;99.90;;;;;;5010462;28;20213;-70
2023/01/21 04:02:34;;;;;;;4.57;3.75;;;-5.40;99.90;;;;;;5011287;28;20207;-70
2023/01/21 04:05:01;;;;;;;7.45;4.72;;;-5.40;99.90;;;;;;5010922;28;20198;-70
2023/01/21 04:07:30;;;;;;;5.45;3.47;;;-5.40;99.90;;;;;;5010731;28;20249;-68
2023/01/21 04:09:57;;;;;;;17.30;6.13;;;-5.40;99.90;;;;;;5010571;28;20588;-70
2023/01/21 04:12:23;;;;;;;6.90;4.55;;;-5.40;99.90;;;;;;5010945;28;20681;-70
2023/01/21 04:14:50;;;;;;;6.43;4.90;;;-5.40;99.90;;;;;;5010956;28;20209;-70
2023/01/21 04:17:17;;;;;;;5.82;4.43;;;-5.50;99.90;;;;;;5011196;28;20205;-70
2023/01/21 04:19:43;;;;;;;4.65;4.25;;;-5.50;99.90;;;;;;5010355;28;20207;-70
2023/01/21 04:22:10;;;;;;;5.60;4.82;;;-5.50;99.90;;;;;;5010862;28;20203;-70
2023/01/21 04:24:38;;;;;;;4.07;3.65;;;-5.50;99.90;;;;;;5010581;28;20205;-70
2023/01/21 04:27:05;;;;;;;7.88;4.55;;;-5.50;99.90;;;;;;5010628;28;20230;-70
2023/01/21 04:29:31;;;;;;;8.43;5.10;;;-5.50;99.90;;;;;;5009965;28;20198;-68
2023/01/21 04:31:58;;;;;;;4.43;3.92;;;-5.50;99.90;;;;;;5010551;28;20199;-67
2023/01/21 04:34:25;;;;;;;5.85;4.10;;;-5.60;99.90;;;;;;5010790;28;20210;-68
2023/01/21 04:36:51;;;;;;;9.70;6.50;;;-5.60;99.90;;;;;;5010070;28;20222;-68
2023/01/21 04:39:18;;;;;;;5.20;4.05;;;-5.60;99.90;;;;;;5010090;28;20206;-68
2023/01/21 04:41:46;;;;;;;4.25;3.65;;;-5.50;99.90;;;;;;5013511;28;20580;-68
2023/01/21 04:44:13;;;;;;;7.35;4.07;;;-5.50;99.90;;;;;;5014598;28;20213;-68
2023/01/21 04:46:39;;;;;;;6.25;3.95;;;-5.50;99.90;;;;;;5014499;28;20226;-68
2023/01/21 04:49:06;;;;;;;6.93;5.05;;;-5.50;99.90;;;;;;5013567;28;20708;-68
2023/01/21 04:51:33;;;;;;;5.50;4.93;;;-5.50;99.90;;;;;;5014510;28;20213;-68
2023/01/21 04:54:00;;;;;;;7.65;4.38;;;-5.50;99.90;;;;;;5013734;28;20209;-68
2023/01/21 04:56:26;;;;;;;8.82;5.13;;;-5.50;99.90;;;;;;5014449;28;20256;-68
2023/01/21 04:58:54;;;;;;;4.15;3.75;;;-5.60;99.90;;;;;;5013590;28;20202;-68
2023/01/21 05:01:21;;;;;;;5.68;4.55;;;-5.60;99.90;;;;;;5014099;28;20580;-68
2023/01/21 05:03:47;;;;;;;5.50;3.63;;;-5.60;99.90;;;;;;5014309;28;20778;-70
2023/01/21 05:06:14;;;;;;;6.90;4.47;;;-5.60;99.90;;;;;;5013865;28;20258;-68
2023/01/21 05:08:41;;;;;;;5.70;3.67;;;-5.60;99.90;;;;;;5013512;28;20218;-69
2023/01/21 05:11:08;;;;;;;7.18;4.35;;;-5.60;99.90;;;;;;5013652;28;20210;-70
2023/01/21 05:13:35;;;;;;;7.13;4.93;;;-5.60;99.90;;;;;;5014062;28;20253;-70
2023/01/21 05:16:07;;;;;;;5.97;4.10;;;-5.70;99.90;;;;;;5013758;28;20268;-70
2023/01/21 05:18:34;;;;;;;4.65;4.00;;;-5.70;99.90;;;;;;5013376;28;20206;-70
2023/01/21 05:21:00;;;;;;;5.32;3.80;;;-5.70;99.90;;;;;;5013749;28;20696;-70
2023/01/21 05:23:27;;;;;;;9.77;4.95;;;-5.70;99.90;;;;;;5013883;28;20643;-70
2023/01/21 05:25:54;;;;;;;4.90;3.90;;;-5.70;99.90;;;;;;5013678;28;20246;-67
2023/01/21 05:28:20;;;;;;;4.10;3.40;;;-5.80;99.90;;;;;;5013186;28;20233;-69
2023/01/21 05:30:47;;;;;;;4.93;3.88;;;-5.80;99.90;;;;;;5013814;28;20209;-69
2023/01/21 05:33:15;;;;;;;6.72;4.10;;;-5.80;99.90;;;;;;5013341;28;20690;-70
2023/01/21 05:35:42;;;;;;;6.68;4.43;;;-5.90;99.90;;;;;;5013407;28;20223;-68
2023/01/21 05:38:08;;;;;;;5.07;3.75;;;-5.90;99.90;;;;;;5013107;28;20195;-70
2023/01/21 05:40:35;;;;;;;4.85;3.85;;;-5.90;99.90;;;;;;5013018;28;20199;-70
2023/01/21 05:43:02;;;;;;;9.77;3.78;;;-5.90;99.90;;;;;;5013456;28;20587;-70
2023/01/21 05:45:28;;;;;;;5.80;2.92;;;-5.90;99.90;;;;;;5013564;28;20595;-70
2023/01/21 05:47:55;;;;;;;5.10;3.42;;;-5.80;99.90;;;;;;5013242;28;20604;-70
2023/01/21 05:50:23;;;;;;;9.95;4.30;;;-5.90;99.90;;;;;;5012908;28;20222;-70
2023/01/21 05:52:50;;;;;;;3.60;3.22;;;-5.90;99.90;;;;;;5013403;28;20214;-70
2023/01/21 05:55:16;;;;;;;6.47;3.35;;;-5.90;99.90;;;;;;5013012;28;20234;-70
2023/01/21 05:57:43;;;;;;;4.30;3.50;;;-5.80;99.90;;;;;;5013198;28;20633;-70
2023/01/21 06:00:11;;;;;;;8.90;3.65;;;-5.90;99.90;;;;;;5012419;28;20206;-70
2023/01/21 06:02:38;;;;;;;6.15;3.75;;;-5.90;99.90;;;;;;5013413;28;20207;-70
2023/01/21 06:05:05;;;;;;;7.45;3.38;;;-5.90;99.90;;;;;;5012748;28;20203;-70
2023/01/21 06:07:33;;;;;;;7.53;4.47;;;-5.90;99.90;;;;;;5013649;28;20694;-70
2023/01/21 06:10:00;;;;;;;5.47;3.22;;;-5.90;99.90;;;;;;5012826;28;20199;-70
2023/01/21 06:12:26;;;;;;;10.88;4.03;;;-5.90;99.90;;;;;;5013078;28;20209;-69
2023/01/21 06:14:53;;;;;;;3.25;2.90;;;-5.90;99.90;;;;;;5012904;28;20215;-69
2023/01/21 06:17:20;;;;;;;3.42;3.03;;;-5.80;99.90;;;;;;5012713;28;20210;-70
2023/01/21 06:19:46;;;;;;;9.43;4.95;;;-5.80;99.90;;;;;;5020571;28;20271;-69
2023/01/21 06:22:15;;;;;;;4.03;3.67;;;-5.80;99.90;;;;;;5031992;28;20206;-69
2023/01/21 06:24:43;;;;;;;8.15;3.08;;;-5.80;99.90;;;;;;5032565;28;20550;-69
2023/01/21 06:27:10;;;;;;;7.40;3.50;;;-5.80;99.90;;;;;;5031933;28;20222;-69
2023/01/21 06:29:37;;;;;;;3.78;3.30;;;-5.70;99.90;;;;;;5032025;28;20221;-69
2023/01/21 06:32:04;;;;;;;3.53;2.88;;;-5.60;99.90;;;;;;5031836;28;20213;-70
2023/01/21 06:34:31;;;;;;;7.85;4.60;;;-5.50;99.90;;;;;;5032348;28;20978;-70
2023/01/21 06:36:57;;;;;;;6.43;5.07;;;-5.40;99.90;;;;;;5013717;28;20226;-70
2023/01/21 06:39:24;;;;;;;9.38;4.80;;;-5.20;99.90;;;;;;5011473;28;20592;-70
2023/01/21 06:41:52;;;;;;;8.18;5.70;;;-5.10;99.90;;;;;;5012179;28;20205;-70
2023/01/21 06:44:19;;;;;;;5.72;5.15;;;-5.00;99.90;;;;;;5012200;28;20217;-70
2023/01/21 06:46:46;;;;;;;14.15;6.57;;;-4.80;99.90;;;;;;5012669;28;20574;-70
2023/01/21 06:49:13;;;;;;;8.23;5.35;;;-4.70;99.90;;;;;;5011361;28;20222;-70
2023/01/21 06:51:39;;;;;;;9.70;7.57;;;-4.50;99.90;;;;;;5012184;28;20213;-70
2023/01/21 06:54:06;;;;;;;11.20;6.38;;;-4.40;99.90;;;;;;5017524;28;20202;-70
2023/01/21 06:56:33;;;;;;;6.85;5.13;;;-4.30;99.90;;;;;;5013788;28;20230;-70
2023/01/21 06:59:01;;;;;;;12.18;7.00;;;-4.30;99.90;;;;;;5012064;28;20655;-70
2023/01/21 07:01:28;;;;;;;9.65;5.53;;;-4.20;99.90;;;;;;5011542;28;20210;-70
2023/01/21 07:03:55;;;;;;;9.57;7.53;;;-4.10;99.90;;;;;;5011008;28;20674;-70
2023/01/21 07:06:22;;;;;;;15.88;8.13;;;-4.00;99.90;;;;;;5011639;28;20313;-72
2023/01/21 07:08:48;;;;;;;12.65;7.82;;;-4.00;99.90;;;;;;5011476;28;20230;-70
2023/01/21 07:11:15;;;;;;;14.75;9.15;;;-4.00;99.90;;;;;;5012042;28;20207;-69
2023/01/21 07:13:42;;;;;;;15.25;7.95;;;-3.90;99.90;;;;;;5011851;28;20199;-70
2023/01/21 07:16:10;;;;;;;12.93;8.45;;;-3.90;99.90;;;;;;5011657;28;20219;-69
2023/01/21 07:18:36;;;;;;;12.70;8.25;;;-3.90;99.90;;;;;;5010917;28;20205;-70
2023/01/21 07:21:03;;;;;;;13.10;8.52;;;-3.90;99.90;;;;;;5011499;28;20203;-69
2023/01/21 07:23:30;;;;;;;18.25;8.63;;;-3.90;99.90;;;;;;5011853;28;20217;-70
2023/01/21 07:25:57;;;;;;;12.00;8.50;;;-3.80;99.90;;;;;;5012067;28;20245;-69
2023/01/21 07:28:24;;;;;;;12.32;7.07;;;-3.80;99.90;;;;;;5011207;28;20218;-70
2023/01/21 07:30:50;;;;;;;16.15;10.10;;;-3.80;99.90;;;;;;5011794;28;20206;-70
2023/01/21 07:33:18;;;;;;;17.75;9.90;;;-3.70;99.90;;;;;;5011502;28;20199;-69
2023/01/21 07:35:45;;;;;;;13.93;8.65;;;-3.70;99.90;;;;;;5011802;28;20230;-69
2023/01/21 07:38:12;;;;;;;15.10;8.60;;;-3.70;99.90;;;;;;5012150;28;20195;-70
2023/01/21 07:40:38;;;;;;;20.20;9.38;;;-3.70;99.90;;;;;;5011837;28;20206;-70
2023/01/21 07:43:05;;;;;;;21.40;10.18;;;-3.70;99.90;;;;;;5011464;28;20210;-70
2023/01/21 07:45:32;;;;;;;15.73;9.73;;;-3.60;99.90;;;;;;5011787;28;20310;-69
2023/01/21 07:47:58;;;;;;;11.88;8.20;;;-3.60;99.90;;;;;;5011017;28;20229;-69
2023/01/21 07:50:27;;;;;;;11.65;8.43;;;-3.60;99.90;;;;;;5010696;28;20498;-70
2023/01/21 07:52:54;;;;;;;20.05;8.30;;;-3.60;99.90;;;;;;5010774;28;20202;-70
2023/01/21 07:55:21;;;;;;;14.38;8.55;;;-3.50;99.90;;;;;;5011037;28;20230;-69
2023/01/21 07:57:48;;;;;;;19.83;11.55;;;-3.40;99.90;;;;;;5010954;28;20630;-69
2023/01/21 08:00:15;;;;;;;15.30;8.50;;;-3.30;99.90;;;;;;5010381;28;20225;-69
2023/01/21 08:02:42;;;;;;;14.88;11.73;;;-3.20;99.90;;;;;;5021318;28;20206;-69
2023/01/21 08:05:10;;;;;;;13.60;9.68;;;-3.20;99.90;;;;;;5022359;28;20225;-69
2023/01/21 08:07:38;;;;;;;19.65;10.95;;;-3.20;99.90;;;;;;5030341;28;20220;-69
2023/01/21 08:10:05;;;;;;;18.17;9.48;;;-3.20;99.90;;;;;;5029349;28;20229;-69
2023/01/21 08:12:31;;;;;;;12.57;8.40;;;-3.20;99.90;;;;;;5030167;28;20209;-69
2023/01/21 08:14:58;;;;;;;19.88;9.13;;;-3.20;99.90;;;;;;5029476;28;20591;-68
2023/01/21 08:17:25;;;;;;;12.98;9.93;;;-3.20;99.90;;;;;;5030380;28;20232;-69
2023/01/21 08:19:52;;;;;;;16.35;8.95;;;-3.20;99.90;;;;;;5030051;28;20197;-69
2023/01/21 08:22:19;;;;;;;14.73;8.98;;;-3.20;99.90;;;;;;5029958;28;20205;-69
2023/01/21 08:24:47;;;;;;;17.52;9.68;;;-3.20;99.90;;;;;;5030437;28;20206;-69
2023/01/21 08:27:13;;;;;;;15.93;9.05;;;-3.10;99.90;;;;;;5030382;28;20202;-69
2023/01/21 08:29:40;;;;;;;22.02;8.50;;;-3.00;99.90;;;;;;5030191;28;20237;-69
2023/01/21 08:32:07;;;;;;;16.73;9.40;;;-2.90;99.90;;;;;;5024055;28;20201;-69
2023/01/21 08:34:34;;;;;;;15.43;8.60;;;-2.80;99.90;;;;;;5010500;28;20588;-69
2023/01/21 08:37:01;;;;;;;13.90;9.05;;;-2.70;99.90;;;;;;5010356;28;20616;-69
2023/01/21 08:39:27;;;;;;;14.02;8.75;;;-2.70;99.90;;;;;;5009529;28;20269;-69
2023/01/21 08:41:55;;;;;;;25.95;11.45;;;-2.70;99.90;;;;;;5010474;28;20202;-69
2023/01/21 08:44:22;;;;;;;16.52;8.20;;;-2.60;99.90;;;;;;5010257;28;20684;-69
2023/01/21 08:46:49;;;;;;;18.65;10.32;;;-2.60;99.90;;;;;;5010293;28;20226;-69
2023/01/21 08:49:16;;;;;;;15.52;8.32;;;-2.60;99.90;;;;;;5022334;28;20224;-69
2023/01/21 08:51:43;;;;;;;14.02;9.73;;;-2.50;99.90;;;;;;5025849;28;20202;-69
2023/01/21 08:54:09;;;;;;;17.75;8.60;;;-2.50;99.90;;;;;;5030254;28;20198;-69
2023/01/21 08:56:36;;;;;;;17.58;9.27;;;-2.50;99.90;;;;;;5029554;28;20611;-69
2023/01/21 08:59:04;;;;;;;18.42;10.35;;;-2.50;99.90;;;;;;5029473;28;20201;-69
2023/01/21 09:01:32;;;;;;;12.50;8.07;;;-2.50;99.90;;;;;;5030264;28;20202;-69
2023/01/21 09:04:00;;;;;;;13.63;8.90;;;-2.50;99.90;;;;;;5030028;28;20661;-69
2023/01/21 09:06:29;;;;;;;17.95;8.05;;;-2.40;99.90;;;;;;5030198;28;20229;-69
2023/01/21 09:08:57;;;;;;;16.63;8.65;;;-2.30;99.90;;;;;;5029179;28;20252;-69
2023/01/21 09:11:24;;;;;;;11.93;8.35;;;-2.20;99.90;;;;;;5029985;28;20237;-69
2023/01/21 09:13:50;;;;;;;13.32;7.53;;;-2.10;99.90;;;;;;5030233;28;20206;-69
2023/01/21 09:16:20;;;;;;;14.82;7.43;;;-2.00;99.90;;;;;;5029968;28;20229;-69
2023/01/21 09:18:47;;;;;;;24.35;10.38;;;-1.80;99.90;;;;;;5029589;28;20202;-69
2023/01/21 09:21:14;;;;;;;15.93;8.63;;;-1.70;99.90;;;;;;5030173;28;20213;-69
2023/01/21 09:23:43;;;;;;;13.88;7.85;;;-1.60;99.90;;;;;;5030008;28;20695;-69
2023/01/21 09:26:14;;;;;;;18.02;9.27;;;-1.40;99.90;;;;;;5030303;28;20218;-69
2023/01/21 09:28:43;;;;;;;18.95;9.65;;;-1.30;99.90;;;;;;5033369;28;20501;-68
2023/01/21 09:31:11;;;;;;;15.77;8.98;;;-1.10;99.90;;;;;;5033731;28;20206;-69
2023/01/21 09:33:43;;;;;;;18.35;8.90;;;-1.00;99.90;;;;;;5033923;28;20691;-69
2023/01/21 09:36:14;;;;;;;17.42;8.70;;;-1.00;99.90;;;;;;5033497;28;20233;-69
2023/01/21 09:38:42;;;;;;;14.07;8.77;;;-1.00;99.90;;;;;;5033312;28;20202;-69
2023/01/21 09:41:20;;;;;;;15.85;7.80;;;-0.90;99.90;;;;;;5033563;28;21018;-69
2023/01/21 09:43:51;;;;;;;16.42;7.32;;;-0.90;99.90;;;;;;5033690;28;20223;-69
2023/01/21 09:46:27;;;;;;;14.50;6.88;;;-0.90;99.90;;;;;;5033032;28;20233;-69
2023/01/21 09:48:56;;;;;;;14.18;8.90;;;-0.80;99.90;;;;;;5023470;28;20218;-69
2023/01/21 09:51:32;;;;;;;19.10;9.15;;;-0.80;99.90;;;;;;5013593;28;20206;-69
2023/01/21 09:53:59;;;;;;;12.93;6.60;;;-0.80;99.90;;;;;;5013811;28;20573;-69
2023/01/21 09:56:31;;;;;;;13.77;7.43;;;-0.80;99.90;;;;;;5013143;28;20245;-68
2023/01/21 09:59:03;;;;;;;15.25;8.82;;;-0.80;99.90;;;;;;5019638;28;20224;-68
2023/01/21 10:01:34;;;;;;;11.32;6.75;;;-0.80;99.90;;;;;;5015756;28;20643;-68
2023/01/21 10:04:19;;;;;;;9.82;6.47;;;-1.00;99.90;;;;;;5008141;28;20230;-69
2023/01/21 10:06:54;;;;;;;10.73;6.70;;;-1.00;99.90;;;;;;5013346;28;20249;-69
2023/01/21 10:09:45;;;;;;;10.95;6.15;;;-1.00;99.90;;;;;;5011871;28;20651;-69
2023/01/21 10:12:26;;;;;;;8.75;6.20;;;-1.00;99.90;;;;;;5011500;28;20213;-69
2023/01/21 10:15:24;;;;;;;14.35;6.65;;;-1.00;99.90;;;;;;5013790;28;20752;-69
2023/01/21 10:17:56;;;;;;;11.30;6.80;;;-0.90;99.90;;;;;;5015795;28;20212;-68
2023/01/21 10:20:28;;;;;;;10.00;5.97;;;-1.00;99.90;;;;;;5019133;28;20202;-69
2023/01/21 10:22:59;;;;;;;10.68;5.93;;;-1.10;99.90;;;;;;5012629;28;20229;-69
2023/01/21 10:25:29;;;;;;;12.48;6.28;;;-1.10;99.90;;;;;;5011941;28;20222;-69
2023/01/21 10:28:01;;;;;;;10.70;6.28;;;-1.20;99.90;;;;;;5012432;28;20261;-68
2023/01/21 10:30:36;;;;;;;11.10;6.03;;;-1.20;99.90;;;;;;5011314;28;20245;-68
2023/01/21 10:33:05;;;;;;;12.10;6.95;;;-1.10;99.90;;;;;;5011868;28;20210;-69
2023/01/21 10:36:06;;;;;;;12.35;7.72;;;-1.10;99.90;;;;;;5012347;28;20235;-69
2023/01/21 10:38:38;;;;;;;12.48;8.85;;;-1.10;99.90;;;;;;5010470;28;20621;-68
2023/01/21 10:41:20;;;;;;;10.95;6.47;;;-1.10;99.90;;;;;;5011842;28;20225;-68
2023/01/21 10:43:53;;;;;;;10.88;7.03;;;-1.10;99.90;;;;;;5010885;28;20210;-68
2023/01/21 10:46:26;;;;;;;12.10;7.18;;;-1.10;99.90;;;;;;5010436;28;20595;-69
2023/01/21 10:48:59;;;;;;;10.18;8.00;;;-1.10;99.90;;;;;;5011128;28;20206;-69
2023/01/21 10:51:31;;;;;;;14.40;7.22;;;-1.10;99.90;;;;;;5012028;28;20207;-69
2023/01/21 10:54:03;;;;;;;12.73;6.18;;;-1.20;99.90;;;;;;5011838;28;20207;-68
2023/01/21 10:56:39;;;;;;;10.02;6.20;;;-1.10;99.90;;;;;;5011578;28;20226;-69
2023/01/21 10:59:10;;;;;;;12.60;7.68;;;-1.20;99.90;;;;;;5011122;28;20202;-69
2023/01/21 11:01:40;;;;;;;10.98;6.95;;;-1.10;99.90;;;;;;5011585;28;20618;-68
2023/01/21 11:04:13;;;;;;;12.10;7.40;;;-1.00;99.90;;;;;;5011733;28;20244;-69
2023/01/21 11:06:44;;;;;;;11.48;6.70;;;-0.90;99.90;;;;;;5011616;28;20600;-69
2023/01/21 11:09:13;;;;;;;12.15;7.40;;;-0.90;99.90;;;;;;5011031;28;20218;-69
2023/01/21 11:11:41;;;;;;;17.30;8.85;;;-0.80;99.90;;;;;;5011568;28;20297;-68
2023/01/21 11:14:08;;;;;;;21.02;10.07;;;-0.80;99.90;;;;;;5011437;28;20211;-69
2023/01/21 11:16:42;;;;;;;30.10;10.93;;;-0.70;99.90;;;;;;5021465;28;20222;-69
2023/01/21 11:19:14;;;;;;;16.55;8.52;;;-0.80;99.90;;;;;;5027079;28;20252;-69
2023/01/21 11:21:56;;;;;;;8.82;6.28;;;-0.90;99.90;;;;;;5031532;28;20628;-69
2023/01/21 11:24:25;;;;;;;10.32;6.53;;;-0.90;99.90;;;;;;5029657;28;20672;-69
2023/01/21 11:26:53;;;;;;;18.60;9.98;;;-0.80;99.90;;;;;;5030730;28;20619;-69
2023/01/21 11:29:21;;;;;;;17.90;8.23;;;-0.90;99.90;;;;;;5029986;28;20344;-69
2023/01/21 11:31:51;;;;;;;13.05;6.85;;;-0.90;99.90;;;;;;5031076;28;20225;-69
2023/01/21 11:34:20;;;;;;;12.20;6.38;;;-0.90;99.90;;;;;;5030798;28;20210;-69
2023/01/21 11:36:59;;;;;;;9.15;6.40;;;-0.90;99.90;;;;;;5030441;28;20222;-69
2023/01/21 11:39:27;;;;;;;10.48;6.45;;;-1.00;99.90;;;;;;5022712;28;20210;-68
2023/01/21 11:41:55;;;;;;;12.82;7.13;;;-1.00;99.90;;;;;;5009318;28;20586;-69
2023/01/21 11:44:23;;;;;;;10.48;7.65;;;-1.00;99.90;;;;;;5009682;28;20590;-69
2023/01/21 11:46:50;;;;;;;9.77;7.32;;;-0.90;99.90;;;;;;5010761;28;20222;-68
2023/01/21 11:49:24;;;;;;;13.73;7.47;;;-0.90;99.90;;;;;;5009280;28;20227;-68
2023/01/21 11:52:05;;;;;;;12.45;6.63;;;-1.00;99.90;;;;;;5011220;28;20213;-69
2023/01/21 11:54:38;;;;;;;18.33;9.38;;;-1.00;99.90;;;;;;5010564;28;20245;-69
2023/01/21 11:57:05;;;;;;;14.38;8.63;;;-1.10;99.90;;;;;;5010755;28;20706;-69
2023/01/21 11:59:34;;;;;;;16.70;7.32;;;-1.10;99.90;;;;;;5009971;28;20210;-68
2023/01/21 12:02:07;;;;;;;14.77;7.30;;;-1.10;99.90;;;;;;5010487;28;20214;-69
2023/01/21 12:04:35;;;;;;;9.80;7.35;;;-1.00;99.90;;;;;;5010509;28;20222;-68
2023/01/21 12:07:04;;;;;;;12.07;7.30;;;-1.10;99.90;;;;;;5010635;28;20223;-69
2023/01/21 12:09:33;;;;;;;12.20;7.25;;;-1.00;99.90;;;;;;5010218;28;20229;-69
2023/01/21 12:12:33;;;;;;;11.52;6.85;;;-1.00;99.90;;;;;;5010181;28;20206;-68
2023/01/21 12:15:12;;;;;;;10.40;7.03;;;-1.00;99.90;;;;;;5010608;28;20210;-69
2023/01/21 12:17:49;;;;;;;10.48;5.70;;;-1.00;99.90;;;;;;5010609;28;20202;-69
2023/01/21 12:20:29;;;;;;;14.73;6.38;;;-0.90;99.90;;;;;;5010144;28;20206;-69
2023/01/21 12:23:36;;;;;;;9.68;6.53;;;-0.80;99.90;;;;;;5010238;28;20198;-69
2023/01/21 12:26:16;;;;;;;10.05;7.28;;;-0.60;99.90;;;;;;5010649;28;20217;-70
2023/01/21 12:28:57;;;;;;;8.93;6.53;;;-0.70;99.90;;;;;;5009639;28;20198;-71
2023/01/21 12:31:28;;;;;;;9.98;6.55;;;-0.80;99.90;;;;;;5010780;28;20223;-71
2023/01/21 12:34:01;;;;;;;9.05;6.90;;;-0.80;99.90;;;;;;5010878;28;20210;-71
2023/01/21 12:36:33;;;;;;;11.98;6.72;;;-0.80;99.90;;;;;;5028064;28;20237;-71
2023/01/21 12:39:15;;;;;;;15.27;7.30;;;-0.80;99.90;;;;;;5029643;28;20239;-71
2023/01/21 12:41:47;;;;;;;12.88;7.07;;;-0.90;99.90;;;;;;5029716;28;20202;-70
2023/01/21 12:44:26;;;;;;;11.10;7.40;;;-0.90;99.90;;;;;;5030130;28;20205;-70
2023/01/21 12:46:56;;;;;;;12.52;7.68;;;-1.00;99.90;;;;;;5029952;28;20626;-70
2023/01/21 12:49:28;;;;;;;10.13;6.50;;;-0.90;99.90;;;;;;5029538;28;20209;-70
2023/01/21 12:51:59;;;;;;;14.32;7.32;;;-0.90;99.90;;;;;;5030084;28;20614;-70
2023/01/21 12:54:36;;;;;;;12.73;6.20;;;-0.90;99.90;;;;;;5030014;28;20213;-70
2023/01/21 12:57:12;;;;;;;15.65;7.97;;;-0.90;99.90;;;;;;5029744;28;20225;-70
2023/01/21 12:59:45;;;;;;;8.25;6.22;;;-1.00;99.90;;;;;;5029114;28;20201;-70
2023/01/21 13:02:22;;;;;;;10.93;6.78;;;-0.90;99.90;;;;;;5031934;28;20206;-70
2023/01/21 13:04:55;;;;;;;14.98;7.97;;;-0.80;99.90;;;;;;5033444;28;20672;-70